x

Santa Monica Basin - 33nm Wsw Of Santa Monica, Ca (46025) Wave Buoy

2:50 - Sun 29th Mar 2015 All times are PDT. -7 hours from GMT.

  • Sig Wave height 4.3ft
  • Swell Direction
  • Peak Period 17s
  • Average Period 9s
  • Wind
    4mph, 7mph gusts
  • Sea Temp 66°f
  • Ar Temp 61°f
  • Sea Pressure 1016.4mb
  • Santa Monica Basin - 33nm Wsw Of Santa Monica, Ca
  • Santa Monica Basin - 33nm Wsw Of Santa Monica, Ca

More Historic Weather Station data

Upgrade to MSW Pro to gain access to the past 30 days of data for over 8000 Wavebouys and Weather Stations around the globe.

Join Pro

Comparision Forecast

View Surf forecast
   
Dom 03/29 2:50 4.5ft 17s 9s 4 7 mph 1016.4mb 66f 61f
1:50 4ft 17s 10s 2 4 mph 1017mb 66f 60f
12:50 4ft 17s 9s 4 7 mph 1017.7mb 65f 60f
11:50 3.5ft 17s 9s 2 7 mph 1018.5mb 63f 60f
10:50 3.5ft 16s 9s 9 11 mph 1018.4mb 63f 60f
9:50 3.5ft 16s 9s 7 11 mph 1018.1mb 63f 59f
8:50 4ft 17s 9s 4 7 mph 1017.9mb 63f 58f
7:50 4ft 17s 9s 7 9 mph 1017.6mb 63f 59f
6:50 4ft 17s 9s 7 11 mph 1017mb 63f 60f
5:50 3.5ft 13s 8s 4 7 mph 1016.8mb 63f 60f
4:50 3.5ft 17s 8s 2 4 mph 1016.7mb 63f 60f
3:50 3.5ft 16s 8s 4 7 mph 1016.9mb 64f 61f
2:50 4ft 16s 8s 4 7 mph 1016.8mb 64f 61f
1:50 3.5ft 17s 8s 7
mph
1017.2mb 64f 61f
12:50 4ft 17s 8s 2
mph
1017.5mb 64f 61f
Sáb 03/28 11:50 3.5ft 17s 8s 4
mph
1017.6mb 64f 61f
10:50 3.5ft 17s 9s 2 4 mph 1017.5mb 64f 62f
9:50 3.5ft 17s 9s 7 9 mph 1017.3mb 64f 62f
8:50 4ft 17s 9s 7 9 mph 1016.8mb 64f 62f
7:50 3.5ft 17s 8s 7
mph
1016.5mb 64f 63f
6:50 3.5ft 17s 8s 4 7 mph 1016.2mb 65f 63f
5:50 3.5ft 17s 8s 4 7 mph 1016.1mb 65f 63f
4:50 4ft 17s 9s 4 7 mph 1016.3mb 65f 62f
3:50 3.5ft 17s 8s 7
mph
1016.4mb 65f 62f
2:50 3.5ft 17s 8s 7
mph
1016.9mb 65f 62f
1:50 3.5ft 17s 8s 4 7 mph 1017.7mb 65f 61f
12:50 4ft 17s 8s 4 7 mph 1018.5mb 64f 61f
11:50 4ft 17s 7s 4 7 mph 1018.9mb 64f 61f
10:50 4ft 17s 7s 7 11 mph 1019.1mb 64f 61f
9:50 4ft 17s 7s 2 4 mph 1018.8mb 63f 62f
8:50 4ft 17s 6s 2 4 mph 1018.5mb 63f 61f
7:50 4ft 19s 7s 2 4 mph 1017.8mb 63f 61f
6:50 3.5ft 15s 6s 2 4 mph 1017.5mb 63f 60f
5:50 3.5ft 16s 6s 4
mph
1017.4mb 63f 60f
4:50 4ft 15s 6s 2
mph
1017.1mb 63f 60f
3:50 3.5ft 15s 6s 4 7 mph 1017.3mb 63f 60f
2:50 4ft 15s 6s 2 7 mph 1017.6mb 63f 62f
1:50 3.5ft 16s 6s 7 9 mph 1017.7mb 63f 62f
12:50 3.5ft 16s 6s  -  2 mph 1017.6mb 63f 62f
Sex 03/27 11:50 3.5ft 15s 5s 4 7 mph 1018mb 63f 63f
10:50 3.5ft 16s 5s 2 4 mph 1017.6mb 63f 63f
9:50 3.5ft 15s 5s 7 9 mph 1017.6mb 63f 63f
8:50 3.5ft 16s 5s 11 13 mph 1017mb 63f 62f
7:50 3.5ft 16s 5s 11
mph
1016.5mb 63f 63f
6:50 3ft 15s 6s 13 16 mph 1016mb 63f 62f
5:50 3ft 16s 6s 9 11 mph 1016.3mb 64f 63f
4:50 3ft 16s 6s 9 11 mph 1016.6mb 64f 63f
3:50 3ft 15s 6s 9
mph
1017mb 64f 63f
2:50 3.5ft 16s 6s 11 13 mph 1017.7mb 64f 63f
1:50 3.5ft 15s 6s 9 11 mph 1018.3mb 64f 63f
12:50 3.5ft 15s 6s 9
mph
1018.8mb 64f 63f
11:50 3.5ft 16s 6s 9 11 mph 1019mb 64f 63f
10:50 3.5ft 16s 6s 7 9 mph 1019.2mb 63f 62f
9:50 3ft 16s 7s 7 11 mph 1019mb 63f 63f
8:50 2.5ft 15s 7s 7
mph
1018.3mb 63f 62f
7:50 2.5ft 16s 7s 7 9 mph 1017.9mb 63f 62f
6:50 2.5ft 16s 8s 7 9 mph 1017.3mb 63f 63f
5:50 2.5ft 15s 7s 2 4 mph 1016.9mb 63f 63f
4:50 3ft 16s 7s 9 11 mph 1016.6mb 63f 64f
3:50 3ft 16s 7s 7 9 mph 1016.5mb 63f 64f
2:50 2.5ft 16s 7s 11 13 mph 1016.6mb 63f 66f
1:50 2.5ft 16s 7s 9 11 mph 1017mb 63f 65f
12:50 2.5ft 16s 6s 9 11 mph 1016.8mb 63f 66f
Qui 03/26 11:50 2.5ft 16s 7s 11
mph
1016.9mb 63f 66f
10:50 2.5ft 11s 6s 11
mph
1017.1mb 63f 65f
9:50 3ft 16s 7s 9
mph
1017.3mb 63f 65f
8:50 2.5ft 16s 7s 4
mph
1017mb 64f 65f
7:50 3ft 17s 7s 11 13 mph 1016.4mb 64f 66f
6:50 2.5ft 16s 7s 7 9 mph 1016.3mb 64f 65f
5:50 3ft 17s 7s 9 11 mph 1016.2mb 65f 66f
4:50 3ft 11s 7s 4 7 mph 1016.2mb 66f 67f
3:50 3ft 17s 7s 4
mph
1016.5mb 65f 67f
2:50 3ft 11s 6s 7 9 mph 1016.7mb 66f 67f
1:50 3.5ft 17s 6s 4 7 mph 1017.8mb 66f 67f
12:50 3.5ft 16s 6s 2
mph
1018.7mb 66f 66f
11:50 3.5ft 12s 7s  -  2 mph 1019.1mb 64f 65f
10:50 3.5ft 10s 6s  -  2 mph 1019.3mb 64f 64f
9:50 3.5ft 9s 6s  -  2 mph 1019.2mb 62f 63f
8:50 3.5ft 11s 7s 4
mph
1018.6mb 62f 62f
7:50 3.5ft 11s 7s 2
mph
1018.2mb 62f 63f
6:50 3ft 12s 7s 4
mph
1017.7mb 63f 63f
5:50 3ft 17s 7s 7
mph
1017.2mb 63f 64f
4:50 2.5ft 12s 7s 4 7 mph 1017mb 63f 63f
3:50 3ft 19s 6s 4
mph
1016.8mb 62f 63f
2:50 2.5ft 12s 5s 9 11 mph 1016.7mb 62f 62f
1:50 3ft 12s 5s 11 13 mph 1016.8mb 62f 63f
12:50  -   -   -  13 16 mph 1016.6mb 62f 64f
Qua 03/25 11:50  -   -   -  16 18 mph 1016.8mb 62f 64f
10:50 3ft 14s 5s 13 16 mph 1016.9mb 62f 64f